RJDA(METAR)
06/25 08:00
METAR RJDA 242300Z 08004KT 040V140 CAVOK 22/19 Q1015 RMK A2998=
戻る
トップページへ戻る
IMOC Co,.Ltd.